sensor_id;sensor_type;location;lat;lon;timestamp;temperature;humidity
17154;DHT22;8692;52.164;7.558;2023-05-07T00:02:00;15.10;99.90
17154;DHT22;8692;52.164;7.558;2023-05-07T00:04:30;15.10;99.90
17154;DHT22;8692;52.164;7.558;2023-05-07T00:07:03;15.10;99.90
17154;DHT22;8692;52.164;7.558;2023-05-07T00:09:35;15.10;99.90
17154;DHT22;8692;52.164;7.558;2023-05-07T00:12:03;15.10;99.90
17154;DHT22;8692;52.164;7.558;2023-05-07T00:14:33;15.00;99.90
17154;DHT22;8692;52.164;7.558;2023-05-07T00:17:03;15.00;99.90
17154;DHT22;8692;52.164;7.558;2023-05-07T00:19:32;15.00;99.90
17154;DHT22;8692;52.164;7.558;2023-05-07T00:22:00;15.00;99.90
17154;DHT22;8692;52.164;7.558;2023-05-07T00:24:28;15.00;99.90
17154;DHT22;8692;52.164;7.558;2023-05-07T00:26:58;14.90;99.90
17154;DHT22;8692;52.164;7.558;2023-05-07T00:29:27;14.90;99.90
17154;DHT22;8692;52.164;7.558;2023-05-07T00:31:59;14.90;99.90
17154;DHT22;8692;52.164;7.558;2023-05-07T00:34:27;14.90;99.90
17154;DHT22;8692;52.164;7.558;2023-05-07T00:36:58;14.90;99.90
17154;DHT22;8692;52.164;7.558;2023-05-07T00:39:26;14.90;99.90
17154;DHT22;8692;52.164;7.558;2023-05-07T00:41:55;14.80;99.90
17154;DHT22;8692;52.164;7.558;2023-05-07T00:44:23;14.80;99.90
17154;DHT22;8692;52.164;7.558;2023-05-07T00:46:52;14.80;99.90
17154;DHT22;8692;52.164;7.558;2023-05-07T00:49:33;14.80;99.90
17154;DHT22;8692;52.164;7.558;2023-05-07T00:52:03;14.80;99.90
17154;DHT22;8692;52.164;7.558;2023-05-07T00:54:32;14.80;99.90
17154;DHT22;8692;52.164;7.558;2023-05-07T00:57:02;14.80;99.90
17154;DHT22;8692;52.164;7.558;2023-05-07T00:59:33;14.70;99.90
17154;DHT22;8692;52.164;7.558;2023-05-07T01:02:04;14.70;99.90
17154;DHT22;8692;52.164;7.558;2023-05-07T01:04:37;14.60;99.90
17154;DHT22;8692;52.164;7.558;2023-05-07T01:07:08;14.60;99.90
17154;DHT22;8692;52.164;7.558;2023-05-07T01:09:36;14.60;99.90
17154;DHT22;8692;52.164;7.558;2023-05-07T01:12:05;14.60;99.90
17154;DHT22;8692;52.164;7.558;2023-05-07T01:14:34;14.60;99.90
17154;DHT22;8692;52.164;7.558;2023-05-07T01:17:03;14.60;99.90
17154;DHT22;8692;52.164;7.558;2023-05-07T01:19:31;14.60;99.90
17154;DHT22;8692;52.164;7.558;2023-05-07T01:22:07;14.60;99.90
17154;DHT22;8692;52.164;7.558;2023-05-07T01:24:46;14.50;99.90
17154;DHT22;8692;52.164;7.558;2023-05-07T01:27:16;14.50;99.90
17154;DHT22;8692;52.164;7.558;2023-05-07T01:29:46;14.50;99.90
17154;DHT22;8692;52.164;7.558;2023-05-07T01:32:19;14.50;99.90
17154;DHT22;8692;52.164;7.558;2023-05-07T01:34:53;14.40;99.90
17154;DHT22;8692;52.164;7.558;2023-05-07T01:37:25;14.40;99.90
17154;DHT22;8692;52.164;7.558;2023-05-07T01:39:57;14.30;99.90
17154;DHT22;8692;52.164;7.558;2023-05-07T01:42:29;14.30;99.90
17154;DHT22;8692;52.164;7.558;2023-05-07T01:44:57;14.30;99.90
17154;DHT22;8692;52.164;7.558;2023-05-07T01:47:29;14.30;99.90
17154;DHT22;8692;52.164;7.558;2023-05-07T01:50:00;14.20;99.90
17154;DHT22;8692;52.164;7.558;2023-05-07T01:52:29;14.20;99.90
17154;DHT22;8692;52.164;7.558;2023-05-07T01:54:59;14.20;99.90
17154;DHT22;8692;52.164;7.558;2023-05-07T01:57:27;14.10;99.90
17154;DHT22;8692;52.164;7.558;2023-05-07T01:59:57;14.10;99.90
17154;DHT22;8692;52.164;7.558;2023-05-07T02:02:26;14.10;99.90
17154;DHT22;8692;52.164;7.558;2023-05-07T02:04:57;14.10;99.90
17154;DHT22;8692;52.164;7.558;2023-05-07T02:07:25;14.10;99.90
17154;DHT22;8692;52.164;7.558;2023-05-07T02:09:55;14.00;99.90
17154;DHT22;8692;52.164;7.558;2023-05-07T02:12:25;14.00;99.90
17154;DHT22;8692;52.164;7.558;2023-05-07T02:14:53;13.90;99.90
17154;DHT22;8692;52.164;7.558;2023-05-07T02:17:23;13.90;99.90
17154;DHT22;8692;52.164;7.558;2023-05-07T02:19:52;13.80;99.90
17154;DHT22;8692;52.164;7.558;2023-05-07T02:22:22;13.80;99.90
17154;DHT22;8692;52.164;7.558;2023-05-07T02:24:50;13.80;99.90
17154;DHT22;8692;52.164;7.558;2023-05-07T02:27:21;13.80;99.90
17154;DHT22;8692;52.164;7.558;2023-05-07T02:29:53;13.70;99.90
17154;DHT22;8692;52.164;7.558;2023-05-07T02:32:21;13.70;99.90
17154;DHT22;8692;52.164;7.558;2023-05-07T02:34:50;13.70;99.90
17154;DHT22;8692;52.164;7.558;2023-05-07T02:37:19;13.70;99.90
17154;DHT22;8692;52.164;7.558;2023-05-07T02:39:47;13.60;99.90
17154;DHT22;8692;52.164;7.558;2023-05-07T02:42:16;13.60;99.90
17154;DHT22;8692;52.164;7.558;2023-05-07T02:44:44;13.60;99.90
17154;DHT22;8692;52.164;7.558;2023-05-07T02:47:15;13.60;99.90
17154;DHT22;8692;52.164;7.558;2023-05-07T02:49:46;13.60;99.90
17154;DHT22;8692;52.164;7.558;2023-05-07T02:52:14;13.60;99.90
17154;DHT22;8692;52.164;7.558;2023-05-07T02:54:42;13.60;99.90
17154;DHT22;8692;52.164;7.558;2023-05-07T02:57:10;13.60;99.90
17154;DHT22;8692;52.164;7.558;2023-05-07T02:59:39;13.60;99.90
17154;DHT22;8692;52.164;7.558;2023-05-07T03:02:07;13.50;99.90
17154;DHT22;8692;52.164;7.558;2023-05-07T03:04:39;13.50;99.90
17154;DHT22;8692;52.164;7.558;2023-05-07T03:07:11;13.50;99.90
17154;DHT22;8692;52.164;7.558;2023-05-07T03:09:42;13.50;99.90
17154;DHT22;8692;52.164;7.558;2023-05-07T03:12:10;13.40;99.90
17154;DHT22;8692;52.164;7.558;2023-05-07T03:14:38;13.40;99.90
17154;DHT22;8692;52.164;7.558;2023-05-07T03:17:06;13.40;99.90
17154;DHT22;8692;52.164;7.558;2023-05-07T03:19:36;13.40;99.90
17154;DHT22;8692;52.164;7.558;2023-05-07T03:22:04;13.40;99.90
17154;DHT22;8692;52.164;7.558;2023-05-07T03:24:35;13.40;99.90
17154;DHT22;8692;52.164;7.558;2023-05-07T03:27:03;13.30;99.90
17154;DHT22;8692;52.164;7.558;2023-05-07T03:29:32;13.30;99.90
17154;DHT22;8692;52.164;7.558;2023-05-07T03:32:00;13.30;99.90
17154;DHT22;8692;52.164;7.558;2023-05-07T03:34:28;13.30;99.90
17154;DHT22;8692;52.164;7.558;2023-05-07T03:36:58;13.20;99.90
17154;DHT22;8692;52.164;7.558;2023-05-07T03:39:26;13.20;99.90
17154;DHT22;8692;52.164;7.558;2023-05-07T03:41:54;13.20;99.90
17154;DHT22;8692;52.164;7.558;2023-05-07T03:44:23;13.20;99.90
17154;DHT22;8692;52.164;7.558;2023-05-07T03:46:53;13.20;99.90
17154;DHT22;8692;52.164;7.558;2023-05-07T03:49:22;13.20;99.90
17154;DHT22;8692;52.164;7.558;2023-05-07T03:51:52;13.10;99.90
17154;DHT22;8692;52.164;7.558;2023-05-07T03:54:24;13.10;99.90
17154;DHT22;8692;52.164;7.558;2023-05-07T03:56:55;13.10;99.90
17154;DHT22;8692;52.164;7.558;2023-05-07T03:59:23;13.10;99.90
17154;DHT22;8692;52.164;7.558;2023-05-07T04:01:51;13.10;99.90
17154;DHT22;8692;52.164;7.558;2023-05-07T04:04:22;13.10;99.90
17154;DHT22;8692;52.164;7.558;2023-05-07T04:06:51;13.10;99.90
17154;DHT22;8692;52.164;7.558;2023-05-07T04:09:21;13.10;99.90
17154;DHT22;8692;52.164;7.558;2023-05-07T04:11:50;13.10;99.90
17154;DHT22;8692;52.164;7.558;2023-05-07T04:14:18;13.10;99.90
17154;DHT22;8692;52.164;7.558;2023-05-07T04:16:48;13.10;99.90
17154;DHT22;8692;52.164;7.558;2023-05-07T04:19:16;13.10;99.90
17154;DHT22;8692;52.164;7.558;2023-05-07T04:21:46;13.10;99.90
17154;DHT22;8692;52.164;7.558;2023-05-07T04:24:14;13.10;99.90
17154;DHT22;8692;52.164;7.558;2023-05-07T04:26:43;13.10;99.90
17154;DHT22;8692;52.164;7.558;2023-05-07T04:29:16;13.10;99.90
17154;DHT22;8692;52.164;7.558;2023-05-07T04:31:44;13.10;99.90
17154;DHT22;8692;52.164;7.558;2023-05-07T04:34:12;13.10;99.90
17154;DHT22;8692;52.164;7.558;2023-05-07T04:36:43;13.10;99.90
17154;DHT22;8692;52.164;7.558;2023-05-07T04:39:13;13.10;99.90
17154;DHT22;8692;52.164;7.558;2023-05-07T04:41:43;13.10;99.90
17154;DHT22;8692;52.164;7.558;2023-05-07T04:44:15;13.10;99.90
17154;DHT22;8692;52.164;7.558;2023-05-07T04:46:44;13.10;99.90
17154;DHT22;8692;52.164;7.558;2023-05-07T04:49:12;13.10;99.90
17154;DHT22;8692;52.164;7.558;2023-05-07T04:51:43;13.10;99.90
17154;DHT22;8692;52.164;7.558;2023-05-07T04:54:14;13.10;99.90
17154;DHT22;8692;52.164;7.558;2023-05-07T04:56:44;13.10;99.90
17154;DHT22;8692;52.164;7.558;2023-05-07T04:59:13;13.10;99.90
17154;DHT22;8692;52.164;7.558;2023-05-07T05:01:45;13.00;99.90
17154;DHT22;8692;52.164;7.558;2023-05-07T05:04:14;13.10;99.90
17154;DHT22;8692;52.164;7.558;2023-05-07T05:06:42;13.00;99.90
17154;DHT22;8692;52.164;7.558;2023-05-07T05:09:11;13.00;99.90
17154;DHT22;8692;52.164;7.558;2023-05-07T05:11:40;13.10;99.90
17154;DHT22;8692;52.164;7.558;2023-05-07T05:14:09;13.10;99.90
17154;DHT22;8692;52.164;7.558;2023-05-07T05:16:37;13.10;99.90
17154;DHT22;8692;52.164;7.558;2023-05-07T05:19:07;13.10;99.90
17154;DHT22;8692;52.164;7.558;2023-05-07T05:21:38;13.10;99.90
17154;DHT22;8692;52.164;7.558;2023-05-07T05:24:09;13.10;99.90
17154;DHT22;8692;52.164;7.558;2023-05-07T05:26:38;13.10;99.90
17154;DHT22;8692;52.164;7.558;2023-05-07T05:29:09;13.10;99.90
17154;DHT22;8692;52.164;7.558;2023-05-07T05:31:40;13.20;99.90
17154;DHT22;8692;52.164;7.558;2023-05-07T05:34:15;13.20;99.90
17154;DHT22;8692;52.164;7.558;2023-05-07T05:36:44;13.20;99.90
17154;DHT22;8692;52.164;7.558;2023-05-07T05:39:15;13.30;99.90
17154;DHT22;8692;52.164;7.558;2023-05-07T05:41:46;13.30;99.90
17154;DHT22;8692;52.164;7.558;2023-05-07T05:44:14;13.30;99.90
17154;DHT22;8692;52.164;7.558;2023-05-07T05:46:44;13.30;99.90
17154;DHT22;8692;52.164;7.558;2023-05-07T05:49:14;13.40;99.90
17154;DHT22;8692;52.164;7.558;2023-05-07T05:51:45;13.40;99.90
17154;DHT22;8692;52.164;7.558;2023-05-07T05:54:13;13.40;99.90
17154;DHT22;8692;52.164;7.558;2023-05-07T05:56:42;13.40;99.90
17154;DHT22;8692;52.164;7.558;2023-05-07T05:59:10;13.40;99.90
17154;DHT22;8692;52.164;7.558;2023-05-07T06:01:41;13.50;99.90
17154;DHT22;8692;52.164;7.558;2023-05-07T06:04:09;13.50;99.90
17154;DHT22;8692;52.164;7.558;2023-05-07T06:06:41;13.50;99.90
17154;DHT22;8692;52.164;7.558;2023-05-07T06:09:12;13.60;99.90
17154;DHT22;8692;52.164;7.558;2023-05-07T06:11:43;13.60;99.90
17154;DHT22;8692;52.164;7.558;2023-05-07T06:14:12;13.60;99.90
17154;DHT22;8692;52.164;7.558;2023-05-07T06:16:43;13.60;99.90
17154;DHT22;8692;52.164;7.558;2023-05-07T06:19:14;13.60;99.90
17154;DHT22;8692;52.164;7.558;2023-05-07T06:21:48;13.60;99.90
17154;DHT22;8692;52.164;7.558;2023-05-07T06:24:16;13.70;99.90
17154;DHT22;8692;52.164;7.558;2023-05-07T06:26:45;13.70;99.90
17154;DHT22;8692;52.164;7.558;2023-05-07T06:29:15;13.70;99.90
17154;DHT22;8692;52.164;7.558;2023-05-07T06:31:44;13.80;99.90
17154;DHT22;8692;52.164;7.558;2023-05-07T06:34:13;13.80;99.90
17154;DHT22;8692;52.164;7.558;2023-05-07T06:36:42;13.90;99.90
17154;DHT22;8692;52.164;7.558;2023-05-07T06:39:24;13.90;99.90
17154;DHT22;8692;52.164;7.558;2023-05-07T06:41:54;14.00;99.90
17154;DHT22;8692;52.164;7.558;2023-05-07T06:44:30;14.10;99.90
17154;DHT22;8692;52.164;7.558;2023-05-07T06:47:10;14.10;99.90
17154;DHT22;8692;52.164;7.558;2023-05-07T06:49:43;14.10;99.90
17154;DHT22;8692;52.164;7.558;2023-05-07T06:52:15;14.20;99.90
17154;DHT22;8692;52.164;7.558;2023-05-07T06:54:45;14.20;99.90
17154;DHT22;8692;52.164;7.558;2023-05-07T06:57:16;14.30;99.90
17154;DHT22;8692;52.164;7.558;2023-05-07T06:59:45;14.30;99.90
17154;DHT22;8692;52.164;7.558;2023-05-07T07:02:13;14.30;99.90
17154;DHT22;8692;52.164;7.558;2023-05-07T07:04:44;14.30;99.90
17154;DHT22;8692;52.164;7.558;2023-05-07T07:07:13;14.30;99.90
17154;DHT22;8692;52.164;7.558;2023-05-07T07:09:45;14.30;99.90
17154;DHT22;8692;52.164;7.558;2023-05-07T07:12:16;14.40;99.90
17154;DHT22;8692;52.164;7.558;2023-05-07T07:14:45;14.40;99.90
17154;DHT22;8692;52.164;7.558;2023-05-07T07:17:13;14.40;99.90
17154;DHT22;8692;52.164;7.558;2023-05-07T07:19:42;14.50;99.90
17154;DHT22;8692;52.164;7.558;2023-05-07T07:22:10;14.50;99.90
17154;DHT22;8692;52.164;7.558;2023-05-07T07:24:38;14.50;99.90
17154;DHT22;8692;52.164;7.558;2023-05-07T07:27:12;14.50;99.90
17154;DHT22;8692;52.164;7.558;2023-05-07T07:29:41;14.60;99.90
17154;DHT22;8692;52.164;7.558;2023-05-07T07:32:09;14.60;99.90
17154;DHT22;8692;52.164;7.558;2023-05-07T07:34:40;14.60;99.90
17154;DHT22;8692;52.164;7.558;2023-05-07T07:37:09;14.70;99.90
17154;DHT22;8692;52.164;7.558;2023-05-07T07:39:39;14.70;99.90
17154;DHT22;8692;52.164;7.558;2023-05-07T07:42:12;14.80;99.90
17154;DHT22;8692;52.164;7.558;2023-05-07T07:44:42;14.80;99.90
17154;DHT22;8692;52.164;7.558;2023-05-07T07:47:12;14.90;99.90
17154;DHT22;8692;52.164;7.558;2023-05-07T07:49:43;14.90;99.90
17154;DHT22;8692;52.164;7.558;2023-05-07T07:52:12;14.90;99.90
17154;DHT22;8692;52.164;7.558;2023-05-07T07:54:44;15.00;99.90
17154;DHT22;8692;52.164;7.558;2023-05-07T07:57:16;14.90;99.90
17154;DHT22;8692;52.164;7.558;2023-05-07T07:59:45;15.00;99.90
17154;DHT22;8692;52.164;7.558;2023-05-07T08:02:15;15.00;99.90
17154;DHT22;8692;52.164;7.558;2023-05-07T08:04:45;15.10;99.90
17154;DHT22;8692;52.164;7.558;2023-05-07T08:07:16;15.10;99.90
17154;DHT22;8692;52.164;7.558;2023-05-07T08:09:50;15.20;99.90
17154;DHT22;8692;52.164;7.558;2023-05-07T08:12:23;15.20;99.90
17154;DHT22;8692;52.164;7.558;2023-05-07T08:14:53;15.30;99.90
17154;DHT22;8692;52.164;7.558;2023-05-07T08:17:22;15.40;99.90
17154;DHT22;8692;52.164;7.558;2023-05-07T08:19:53;15.40;99.90
17154;DHT22;8692;52.164;7.558;2023-05-07T08:22:21;15.40;99.90
17154;DHT22;8692;52.164;7.558;2023-05-07T08:24:50;15.50;99.90
17154;DHT22;8692;52.164;7.558;2023-05-07T08:27:20;15.50;99.90
17154;DHT22;8692;52.164;7.558;2023-05-07T08:29:52;15.60;99.90
17154;DHT22;8692;52.164;7.558;2023-05-07T08:32:22;15.60;99.90
17154;DHT22;8692;52.164;7.558;2023-05-07T08:34:50;15.60;99.90
17154;DHT22;8692;52.164;7.558;2023-05-07T08:37:21;15.60;99.90
17154;DHT22;8692;52.164;7.558;2023-05-07T08:39:49;15.70;99.90
17154;DHT22;8692;52.164;7.558;2023-05-07T08:42:23;15.70;99.90
17154;DHT22;8692;52.164;7.558;2023-05-07T08:44:57;15.80;99.90
17154;DHT22;8692;52.164;7.558;2023-05-07T08:47:34;15.80;99.90
17154;DHT22;8692;52.164;7.558;2023-05-07T08:50:12;15.90;99.90
17154;DHT22;8692;52.164;7.558;2023-05-07T08:52:41;16.00;99.90
17154;DHT22;8692;52.164;7.558;2023-05-07T08:55:10;16.00;99.90
17154;DHT22;8692;52.164;7.558;2023-05-07T08:57:41;16.10;99.90
17154;DHT22;8692;52.164;7.558;2023-05-07T09:00:13;16.10;99.90
17154;DHT22;8692;52.164;7.558;2023-05-07T09:02:43;16.20;99.90
17154;DHT22;8692;52.164;7.558;2023-05-07T09:05:12;16.20;99.90
17154;DHT22;8692;52.164;7.558;2023-05-07T09:07:40;16.30;99.90
17154;DHT22;8692;52.164;7.558;2023-05-07T09:10:09;16.30;99.90
17154;DHT22;8692;52.164;7.558;2023-05-07T09:12:39;16.30;99.90
17154;DHT22;8692;52.164;7.558;2023-05-07T09:15:13;16.40;99.90
17154;DHT22;8692;52.164;7.558;2023-05-07T09:17:43;16.40;99.90
17154;DHT22;8692;52.164;7.558;2023-05-07T09:20:12;16.50;99.90
17154;DHT22;8692;52.164;7.558;2023-05-07T09:22:40;16.50;99.90
17154;DHT22;8692;52.164;7.558;2023-05-07T09:25:11;16.50;99.90
17154;DHT22;8692;52.164;7.558;2023-05-07T09:27:43;16.50;99.90
17154;DHT22;8692;52.164;7.558;2023-05-07T09:30:14;16.60;99.90
17154;DHT22;8692;52.164;7.558;2023-05-07T09:32:43;16.60;99.90
17154;DHT22;8692;52.164;7.558;2023-05-07T09:35:17;16.70;99.90
17154;DHT22;8692;52.164;7.558;2023-05-07T09:37:50;16.80;99.90
17154;DHT22;8692;52.164;7.558;2023-05-07T09:40:23;16.80;99.90
17154;DHT22;8692;52.164;7.558;2023-05-07T09:42:53;17.00;99.90
17154;DHT22;8692;52.164;7.558;2023-05-07T09:45:26;17.10;99.90
17154;DHT22;8692;52.164;7.558;2023-05-07T09:47:58;17.20;99.90
17154;DHT22;8692;52.164;7.558;2023-05-07T09:50:30;17.40;99.90
17154;DHT22;8692;52.164;7.558;2023-05-07T09:53:00;17.40;99.90
17154;DHT22;8692;52.164;7.558;2023-05-07T09:55:31;17.50;99.90
17154;DHT22;8692;52.164;7.558;2023-05-07T09:58:02;17.60;99.90
17154;DHT22;8692;52.164;7.558;2023-05-07T10:00:33;17.80;99.90
17154;DHT22;8692;52.164;7.558;2023-05-07T10:03:09;17.90;99.90
17154;DHT22;8692;52.164;7.558;2023-05-07T10:06:01;18.00;99.90
17154;DHT22;8692;52.164;7.558;2023-05-07T10:08:30;18.10;99.90
17154;DHT22;8692;52.164;7.558;2023-05-07T10:11:01;18.10;99.90
17154;DHT22;8692;52.164;7.558;2023-05-07T10:13:32;18.10;99.90
17154;DHT22;8692;52.164;7.558;2023-05-07T10:16:05;18.10;99.90
17154;DHT22;8692;52.164;7.558;2023-05-07T10:18:40;18.20;99.90
17154;DHT22;8692;52.164;7.558;2023-05-07T10:21:17;18.40;99.90
17154;DHT22;8692;52.164;7.558;2023-05-07T10:24:15;18.50;99.90
17154;DHT22;8692;52.164;7.558;2023-05-07T10:26:48;18.60;99.90
17154;DHT22;8692;52.164;7.558;2023-05-07T10:29:23;18.70;99.90
17154;DHT22;8692;52.164;7.558;2023-05-07T10:31:59;18.80;99.90
17154;DHT22;8692;52.164;7.558;2023-05-07T10:34:40;18.90;99.90
17154;DHT22;8692;52.164;7.558;2023-05-07T10:37:10;18.90;99.90
17154;DHT22;8692;52.164;7.558;2023-05-07T10:39:40;19.10;99.90
17154;DHT22;8692;52.164;7.558;2023-05-07T10:42:10;19.20;99.90
17154;DHT22;8692;52.164;7.558;2023-05-07T10:44:43;19.20;99.90
17154;DHT22;8692;52.164;7.558;2023-05-07T10:47:19;19.30;99.90
17154;DHT22;8692;52.164;7.558;2023-05-07T10:50:22;19.40;99.90
17154;DHT22;8692;52.164;7.558;2023-05-07T10:53:20;19.40;99.90
17154;DHT22;8692;52.164;7.558;2023-05-07T10:56:25;19.40;99.90
17154;DHT22;8692;52.164;7.558;2023-05-07T10:59:35;19.50;99.90
17154;DHT22;8692;52.164;7.558;2023-05-07T11:03:06;19.60;99.90
17154;DHT22;8692;52.164;7.558;2023-05-07T11:05:44;19.70;99.90
17154;DHT22;8692;52.164;7.558;2023-05-07T11:08:21;19.80;99.90
17154;DHT22;8692;52.164;7.558;2023-05-07T11:11:01;19.90;99.90
17154;DHT22;8692;52.164;7.558;2023-05-07T11:13:43;20.00;99.90
17154;DHT22;8692;52.164;7.558;2023-05-07T11:16:25;20.10;99.90
17154;DHT22;8692;52.164;7.558;2023-05-07T11:19:11;20.20;99.90
17154;DHT22;8692;52.164;7.558;2023-05-07T11:21:43;20.20;99.90
17154;DHT22;8692;52.164;7.558;2023-05-07T11:24:39;20.20;99.90
17154;DHT22;8692;52.164;7.558;2023-05-07T11:27:11;20.40;99.90
17154;DHT22;8692;52.164;7.558;2023-05-07T11:29:46;20.50;99.90
17154;DHT22;8692;52.164;7.558;2023-05-07T11:32:15;20.60;99.90
17154;DHT22;8692;52.164;7.558;2023-05-07T11:34:53;20.70;99.90
17154;DHT22;8692;52.164;7.558;2023-05-07T11:37:26;20.90;99.90
17154;DHT22;8692;52.164;7.558;2023-05-07T11:40:04;21.00;99.90
17154;DHT22;8692;52.164;7.558;2023-05-07T11:42:35;21.10;99.90
17154;DHT22;8692;52.164;7.558;2023-05-07T11:45:05;21.10;99.90
17154;DHT22;8692;52.164;7.558;2023-05-07T11:47:34;21.10;99.90
17154;DHT22;8692;52.164;7.558;2023-05-07T11:50:10;21.20;99.90
17154;DHT22;8692;52.164;7.558;2023-05-07T11:52:50;21.20;99.90
17154;DHT22;8692;52.164;7.558;2023-05-07T11:55:19;21.30;99.90
17154;DHT22;8692;52.164;7.558;2023-05-07T11:57:53;21.40;99.90
17154;DHT22;8692;52.164;7.558;2023-05-07T12:00:22;21.50;99.90
17154;DHT22;8692;52.164;7.558;2023-05-07T12:02:50;21.60;99.90
17154;DHT22;8692;52.164;7.558;2023-05-07T12:05:22;21.60;99.90
17154;DHT22;8692;52.164;7.558;2023-05-07T12:07:56;21.40;99.90
17154;DHT22;8692;52.164;7.558;2023-05-07T12:10:24;21.30;99.90
17154;DHT22;8692;52.164;7.558;2023-05-07T12:12:52;21.10;99.90
17154;DHT22;8692;52.164;7.558;2023-05-07T12:15:23;21.10;99.90
17154;DHT22;8692;52.164;7.558;2023-05-07T12:17:51;21.20;99.90
17154;DHT22;8692;52.164;7.558;2023-05-07T12:20:19;21.30;99.90
17154;DHT22;8692;52.164;7.558;2023-05-07T12:22:51;21.30;99.90
17154;DHT22;8692;52.164;7.558;2023-05-07T12:25:20;21.40;99.90
17154;DHT22;8692;52.164;7.558;2023-05-07T12:27:51;21.40;99.90
17154;DHT22;8692;52.164;7.558;2023-05-07T12:30:20;21.50;99.90
17154;DHT22;8692;52.164;7.558;2023-05-07T12:32:52;21.50;99.90
17154;DHT22;8692;52.164;7.558;2023-05-07T12:35:27;21.60;99.90
17154;DHT22;8692;52.164;7.558;2023-05-07T12:37:57;21.60;98.60
17154;DHT22;8692;52.164;7.558;2023-05-07T12:40:36;21.60;99.90
17154;DHT22;8692;52.164;7.558;2023-05-07T12:43:07;21.60;99.90
17154;DHT22;8692;52.164;7.558;2023-05-07T12:45:41;21.70;98.30
17154;DHT22;8692;52.164;7.558;2023-05-07T12:48:12;21.70;99.90
17154;DHT22;8692;52.164;7.558;2023-05-07T12:50:41;21.80;99.90
17154;DHT22;8692;52.164;7.558;2023-05-07T12:53:13;21.80;99.00
17154;DHT22;8692;52.164;7.558;2023-05-07T12:55:45;21.90;99.90
17154;DHT22;8692;52.164;7.558;2023-05-07T12:58:20;22.00;99.90
17154;DHT22;8692;52.164;7.558;2023-05-07T13:00:51;22.10;97.50
17154;DHT22;8692;52.164;7.558;2023-05-07T13:03:24;22.10;96.00
17154;DHT22;8692;52.164;7.558;2023-05-07T13:05:54;22.10;97.00
17154;DHT22;8692;52.164;7.558;2023-05-07T13:08:32;22.20;95.20
17154;DHT22;8692;52.164;7.558;2023-05-07T13:11:09;22.20;96.90
17154;DHT22;8692;52.164;7.558;2023-05-07T13:13:45;22.20;97.80
17154;DHT22;8692;52.164;7.558;2023-05-07T13:16:17;22.20;99.10
17154;DHT22;8692;52.164;7.558;2023-05-07T13:18:53;22.40;99.70
17154;DHT22;8692;52.164;7.558;2023-05-07T13:21:27;22.50;96.90
17154;DHT22;8692;52.164;7.558;2023-05-07T13:24:04;22.50;94.70
17154;DHT22;8692;52.164;7.558;2023-05-07T13:26:34;22.50;94.20
17154;DHT22;8692;52.164;7.558;2023-05-07T13:29:13;22.40;95.40
17154;DHT22;8692;52.164;7.558;2023-05-07T13:31:48;22.40;95.30
17154;DHT22;8692;52.164;7.558;2023-05-07T13:34:25;22.40;94.20
17154;DHT22;8692;52.164;7.558;2023-05-07T13:36:56;22.30;95.10
17154;DHT22;8692;52.164;7.558;2023-05-07T13:39:32;22.30;95.90
17154;DHT22;8692;52.164;7.558;2023-05-07T13:42:23;22.40;96.90
17154;DHT22;8692;52.164;7.558;2023-05-07T13:45:01;22.40;94.90
17154;DHT22;8692;52.164;7.558;2023-05-07T13:47:38;22.50;95.20
17154;DHT22;8692;52.164;7.558;2023-05-07T13:50:09;22.70;94.90
17154;DHT22;8692;52.164;7.558;2023-05-07T13:52:50;22.80;96.10
17154;DHT22;8692;52.164;7.558;2023-05-07T13:55:35;22.90;94.00
17154;DHT22;8692;52.164;7.558;2023-05-07T13:58:08;22.90;94.90
17154;DHT22;8692;52.164;7.558;2023-05-07T14:00:47;22.90;91.80
17154;DHT22;8692;52.164;7.558;2023-05-07T14:03:20;22.90;94.30
17154;DHT22;8692;52.164;7.558;2023-05-07T14:05:51;22.70;94.30
17154;DHT22;8692;52.164;7.558;2023-05-07T14:08:32;22.70;95.10
17154;DHT22;8692;52.164;7.558;2023-05-07T14:11:11;22.50;94.70
17154;DHT22;8692;52.164;7.558;2023-05-07T14:13:52;22.60;94.50
17154;DHT22;8692;52.164;7.558;2023-05-07T14:16:24;22.60;95.50
17154;DHT22;8692;52.164;7.558;2023-05-07T14:18:57;22.60;94.00
17154;DHT22;8692;52.164;7.558;2023-05-07T14:21:32;22.50;95.00
17154;DHT22;8692;52.164;7.558;2023-05-07T14:24:07;22.40;96.60
17154;DHT22;8692;52.164;7.558;2023-05-07T14:26:46;22.40;96.30
17154;DHT22;8692;52.164;7.558;2023-05-07T14:29:20;22.40;96.10
17154;DHT22;8692;52.164;7.558;2023-05-07T14:31:59;22.30;96.10
17154;DHT22;8692;52.164;7.558;2023-05-07T14:34:32;22.30;95.50
17154;DHT22;8692;52.164;7.558;2023-05-07T14:37:12;22.30;96.00
17154;DHT22;8692;52.164;7.558;2023-05-07T14:39:50;22.20;97.20
17154;DHT22;8692;52.164;7.558;2023-05-07T14:42:32;22.10;97.00
17154;DHT22;8692;52.164;7.558;2023-05-07T14:45:07;22.00;97.50
17154;DHT22;8692;52.164;7.558;2023-05-07T14:47:43;21.90;97.80
17154;DHT22;8692;52.164;7.558;2023-05-07T14:50:18;21.90;97.70
17154;DHT22;8692;52.164;7.558;2023-05-07T14:53:01;21.80;98.20
17154;DHT22;8692;52.164;7.558;2023-05-07T14:55:32;21.80;98.20
17154;DHT22;8692;52.164;7.558;2023-05-07T14:58:05;21.70;98.90
17154;DHT22;8692;52.164;7.558;2023-05-07T15:00:42;21.70;98.60
17154;DHT22;8692;52.164;7.558;2023-05-07T15:03:19;21.60;99.50
17154;DHT22;8692;52.164;7.558;2023-05-07T15:05:59;21.50;99.90
17154;DHT22;8692;52.164;7.558;2023-05-07T15:08:30;21.50;99.90
17154;DHT22;8692;52.164;7.558;2023-05-07T15:11:09;21.40;99.90
17154;DHT22;8692;52.164;7.558;2023-05-07T15:13:45;21.40;99.90
17154;DHT22;8692;52.164;7.558;2023-05-07T15:16:27;21.40;99.90
17154;DHT22;8692;52.164;7.558;2023-05-07T15:19:02;21.50;99.90
17154;DHT22;8692;52.164;7.558;2023-05-07T15:21:39;21.40;99.90
17154;DHT22;8692;52.164;7.558;2023-05-07T15:24:27;21.30;99.80
17154;DHT22;8692;52.164;7.558;2023-05-07T15:27:03;21.20;99.90
17154;DHT22;8692;52.164;7.558;2023-05-07T15:29:52;21.10;99.90
17154;DHT22;8692;52.164;7.558;2023-05-07T15:32:21;21.10;99.90
17154;DHT22;8692;52.164;7.558;2023-05-07T15:34:49;21.00;99.90
17154;DHT22;8692;52.164;7.558;2023-05-07T15:37:17;21.00;99.90
17154;DHT22;8692;52.164;7.558;2023-05-07T15:39:48;20.90;99.90
17154;DHT22;8692;52.164;7.558;2023-05-07T15:42:16;20.90;99.90
17154;DHT22;8692;52.164;7.558;2023-05-07T15:44:45;21.00;99.90
17154;DHT22;8692;52.164;7.558;2023-05-07T15:47:14;20.90;99.90
17154;DHT22;8692;52.164;7.558;2023-05-07T15:49:42;20.90;99.90
17154;DHT22;8692;52.164;7.558;2023-05-07T15:52:11;20.90;99.90
17154;DHT22;8692;52.164;7.558;2023-05-07T15:54:40;20.90;99.90
17154;DHT22;8692;52.164;7.558;2023-05-07T15:57:08;20.80;99.90
17154;DHT22;8692;52.164;7.558;2023-05-07T15:59:37;20.80;99.90
17154;DHT22;8692;52.164;7.558;2023-05-07T16:02:08;20.70;99.90
17154;DHT22;8692;52.164;7.558;2023-05-07T16:04:40;20.70;99.90
17154;DHT22;8692;52.164;7.558;2023-05-07T16:07:12;20.60;99.90
17154;DHT22;8692;52.164;7.558;2023-05-07T16:09:40;20.60;99.90
17154;DHT22;8692;52.164;7.558;2023-05-07T16:12:08;20.60;99.90
17154;DHT22;8692;52.164;7.558;2023-05-07T16:14:39;20.50;99.90
17154;DHT22;8692;52.164;7.558;2023-05-07T16:17:08;20.40;99.90